AEA11A LFLL-EDDN
Flight info
| Callsign | AEA11A |
|---|---|
| Flight time | 1h 10m |
| Altitude | 30000 |
| Route | BELUS8S/17R BELUS Z87 SOPLO N871 DITON T163 ZUE T125 ROMIR N851 ESULI Y710 SUDEN Z79 GUPIN N869 DINKU DCT LETKU LETKU1T |
| Aircraft | B738/M-SDE2E3FGHIRWXY/LB1 |
Departure
| Time | 2026-05-05 20:29 |
|---|---|
| Airport | Lyon Saint-Exupéry Airport (LFLL) |
Arrival
| Time | 2026-05-05 21:39 |
|---|---|
| Airport | Nuremberg Airport (EDDN) |
| Time | Latitude | Longitude | Altitude | Speed | Heading |
|---|---|---|---|---|---|
| 2026-05-05 20:29 | 45.61229 | 5.10309 | 5187 ft | 201 kts | 173° |
| 2026-05-05 20:29 | 45.59822 | 5.10579 | 5579 ft | 207 kts | 173° |
| 2026-05-05 20:29 | 45.58422 | 5.11024 | 5922 ft | 210 kts | 156° |
| 2026-05-05 20:30 | 45.57282 | 5.12364 | 6274 ft | 215 kts | 128° |
| 2026-05-05 20:30 | 45.56651 | 5.14302 | 6623 ft | 221 kts | 107° |
| 2026-05-05 20:30 | 45.56506 | 5.16502 | 6881 ft | 228 kts | 86° |
| 2026-05-05 20:30 | 45.56788 | 5.18732 | 6898 ft | 234 kts | 85° |
| 2026-05-05 20:31 | 45.56629 | 5.21063 | 6899 ft | 242 kts | 111° |
| 2026-05-05 20:31 | 45.55899 | 5.23193 | 6899 ft | 240 kts | 122° |
| 2026-05-05 20:31 | 45.55076 | 5.25239 | 6892 ft | 241 kts | 121° |
| 2026-05-05 20:31 | 45.54288 | 5.27365 | 6897 ft | 241 kts | 119° |
| 2026-05-05 20:32 | 45.53556 | 5.29502 | 6911 ft | 245 kts | 118° |
| 2026-05-05 20:32 | 45.52788 | 5.31794 | 7144 ft | 270 kts | 117° |
| 2026-05-05 20:32 | 45.51970 | 5.34234 | 7880 ft | 277 kts | 117° |
| 2026-05-05 20:32 | 45.51136 | 5.36719 | 8716 ft | 279 kts | 117° |
| 2026-05-05 20:33 | 45.50587 | 5.39333 | 9497 ft | 286 kts | 96° |
| 2026-05-05 20:33 | 45.50804 | 5.42163 | 10244 ft | 294 kts | 78° |
| 2026-05-05 20:33 | 45.51672 | 5.44823 | 10955 ft | 303 kts | 54° |
| 2026-05-05 20:33 | 45.53238 | 5.46854 | 11667 ft | 310 kts | 33° |
| 2026-05-05 20:34 | 45.55099 | 5.48406 | 12327 ft | 316 kts | 30° |
| 2026-05-05 20:34 | 45.57012 | 5.50006 | 13043 ft | 319 kts | 32° |
| 2026-05-05 20:34 | 45.58910 | 5.51657 | 13678 ft | 325 kts | 32° |
| 2026-05-05 20:34 | 45.60838 | 5.53368 | 13859 ft | 331 kts | 33° |
| 2026-05-05 20:35 | 45.62793 | 5.55116 | 13802 ft | 326 kts | 33° |
| 2026-05-05 20:35 | 45.64691 | 5.56814 | 13794 ft | 323 kts | 33° |
| 2026-05-05 20:35 | 45.66584 | 5.58507 | 13808 ft | 325 kts | 33° |
| 2026-05-05 20:35 | 45.68437 | 5.60366 | 13802 ft | 325 kts | 39° |
| 2026-05-05 20:36 | 45.70198 | 5.62430 | 13798 ft | 331 kts | 42° |
| 2026-05-05 20:36 | 45.71973 | 5.64650 | 14045 ft | 351 kts | 43° |
| 2026-05-05 20:36 | 45.73849 | 5.67016 | 14408 ft | 366 kts | 43° |
| 2026-05-05 20:36 | 45.75810 | 5.69469 | 14930 ft | 376 kts | 43° |
| 2026-05-05 20:37 | 45.77769 | 5.71898 | 15621 ft | 379 kts | 43° |
| 2026-05-05 20:37 | 45.79772 | 5.74371 | 16288 ft | 383 kts | 42° |
| 2026-05-05 20:37 | 45.81788 | 5.76856 | 16902 ft | 388 kts | 42° |
| 2026-05-05 20:37 | 45.83849 | 5.79394 | 17552 ft | 392 kts | 42° |
| 2026-05-05 20:38 | 45.85921 | 5.81954 | 18227 ft | 394 kts | 42° |
| 2026-05-05 20:38 | 45.87981 | 5.84510 | 18806 ft | 399 kts | 42° |
| 2026-05-05 20:38 | 45.90109 | 5.87155 | 19419 ft | 403 kts | 42° |
| 2026-05-05 20:38 | 45.92213 | 5.89771 | 20024 ft | 406 kts | 42° |
| 2026-05-05 20:39 | 45.94374 | 5.92458 | 20542 ft | 412 kts | 42° |
| 2026-05-05 20:39 | 45.96520 | 5.95125 | 21095 ft | 415 kts | 41° |
| 2026-05-05 20:39 | 45.98708 | 5.97849 | 21719 ft | 417 kts | 41° |
| 2026-05-05 20:39 | 46.00914 | 6.00596 | 22255 ft | 421 kts | 41° |
| 2026-05-05 20:40 | 46.03117 | 6.03342 | 22792 ft | 424 kts | 41° |
| 2026-05-05 20:40 | 46.05370 | 6.06156 | 23322 ft | 428 kts | 42° |
| 2026-05-05 20:40 | 46.07612 | 6.08957 | 23889 ft | 429 kts | 41° |
| 2026-05-05 20:40 | 46.09844 | 6.11750 | 24316 ft | 434 kts | 41° |
| 2026-05-05 20:41 | 46.12148 | 6.14631 | 24739 ft | 438 kts | 42° |
| 2026-05-05 20:41 | 46.14470 | 6.17544 | 25173 ft | 442 kts | 41° |
| 2026-05-05 20:41 | 46.16794 | 6.20456 | 25612 ft | 445 kts | 41° |
| 2026-05-05 20:41 | 46.19109 | 6.23358 | 26168 ft | 444 kts | 41° |
| 2026-05-05 20:42 | 46.21407 | 6.26239 | 26861 ft | 440 kts | 41° |
| 2026-05-05 20:42 | 46.23745 | 6.29175 | 27342 ft | 441 kts | 41° |
| 2026-05-05 20:42 | 46.26069 | 6.32101 | 27776 ft | 443 kts | 41° |
| 2026-05-05 20:42 | 46.28392 | 6.35029 | 28323 ft | 442 kts | 41° |
| 2026-05-05 20:43 | 46.30668 | 6.37903 | 28869 ft | 440 kts | 41° |
| 2026-05-05 20:44 | 46.40440 | 6.50305 | 29920 ft | 443 kts | 41° |
| 2026-05-05 20:44 | 46.45045 | 6.56172 | 29918 ft | 439 kts | 41° |
| 2026-05-05 20:45 | 46.51926 | 6.64954 | 29915 ft | 440 kts | 41° |
| 2026-05-05 20:45 | 46.56519 | 6.70835 | 30014 ft | 448 kts | 42° |
| 2026-05-05 20:46 | 46.61163 | 6.76792 | 30013 ft | 440 kts | 42° |
| 2026-05-05 20:46 | 46.65721 | 6.82648 | 29995 ft | 436 kts | 42° |
| 2026-05-05 20:47 | 46.70261 | 6.88494 | 29978 ft | 436 kts | 42° |
| 2026-05-05 20:47 | 46.74781 | 6.94328 | 29977 ft | 436 kts | 42° |
| 2026-05-05 20:48 | 46.79301 | 7.00174 | 29969 ft | 434 kts | 42° |
| 2026-05-05 20:48 | 46.83813 | 7.06033 | 29969 ft | 435 kts | 42° |
| 2026-05-05 20:49 | 46.88309 | 7.11889 | 29975 ft | 436 kts | 42° |
| 2026-05-05 20:49 | 46.92816 | 7.17772 | 29975 ft | 433 kts | 42° |
| 2026-05-05 20:50 | 46.96518 | 7.22611 | 29966 ft | 433 kts | 42° |
| 2026-05-05 20:50 | 47.01769 | 7.29485 | 29972 ft | 432 kts | 42° |
| 2026-05-05 20:51 | 47.06260 | 7.35373 | 29957 ft | 432 kts | 42° |
| 2026-05-05 20:51 | 47.10718 | 7.41230 | 29970 ft | 432 kts | 42° |
| 2026-05-05 20:52 | 47.15172 | 7.47104 | 29959 ft | 431 kts | 42° |
| 2026-05-05 20:52 | 47.19601 | 7.52959 | 29958 ft | 431 kts | 42° |
| 2026-05-05 20:53 | 47.24034 | 7.58832 | 29954 ft | 431 kts | 42° |
| 2026-05-05 20:53 | 47.28476 | 7.64732 | 29950 ft | 431 kts | 42° |
| 2026-05-05 20:54 | 47.32907 | 7.70633 | 29951 ft | 431 kts | 43° |
| 2026-05-05 20:54 | 47.37344 | 7.76557 | 29949 ft | 431 kts | 43° |
| 2026-05-05 20:55 | 47.41772 | 7.82482 | 29951 ft | 431 kts | 43° |
| 2026-05-05 20:55 | 47.46192 | 7.88410 | 29960 ft | 430 kts | 43° |
| 2026-05-05 20:56 | 47.50586 | 7.94314 | 29947 ft | 430 kts | 43° |
| 2026-05-05 20:56 | 47.55001 | 8.00261 | 29943 ft | 430 kts | 43° |
| 2026-05-05 20:57 | 47.59493 | 8.06333 | 29876 ft | 448 kts | 43° |
| 2026-05-05 20:57 | 47.64160 | 8.12656 | 29884 ft | 465 kts | 43° |
| 2026-05-05 20:58 | 47.69019 | 8.19255 | 29877 ft | 483 kts | 43° |
| 2026-05-05 20:58 | 47.74015 | 8.26052 | 29883 ft | 486 kts | 43° |
| 2026-05-05 20:59 | 47.78952 | 8.32783 | 29876 ft | 485 kts | 43° |
| 2026-05-05 20:59 | 47.83911 | 8.39563 | 29872 ft | 484 kts | 43° |
| 2026-05-05 21:00 | 47.88815 | 8.46299 | 29865 ft | 483 kts | 43° |
| 2026-05-05 21:00 | 47.93762 | 8.53114 | 29866 ft | 482 kts | 43° |
| 2026-05-05 21:01 | 47.98637 | 8.59844 | 29864 ft | 481 kts | 43° |
| 2026-05-05 21:01 | 48.03511 | 8.66587 | 29847 ft | 480 kts | 44° |
| 2026-05-05 21:02 | 48.08398 | 8.73363 | 29846 ft | 480 kts | 44° |
| 2026-05-05 21:02 | 48.13245 | 8.80103 | 29848 ft | 478 kts | 44° |
| 2026-05-05 21:03 | 48.18102 | 8.86877 | 29847 ft | 478 kts | 44° |
| 2026-05-05 21:03 | 48.22921 | 8.93617 | 29845 ft | 477 kts | 44° |
| 2026-05-05 21:04 | 48.27784 | 9.00437 | 29845 ft | 477 kts | 45° |
| 2026-05-05 21:04 | 48.32581 | 9.07179 | 29841 ft | 476 kts | 45° |
| 2026-05-05 21:05 | 48.37415 | 9.13994 | 29846 ft | 477 kts | 45° |
| 2026-05-05 21:05 | 48.42269 | 9.20854 | 29841 ft | 477 kts | 45° |
| 2026-05-05 21:06 | 48.47071 | 9.27656 | 29828 ft | 477 kts | 45° |
| 2026-05-05 21:06 | 48.51902 | 9.34518 | 29838 ft | 477 kts | 45° |
| 2026-05-05 21:07 | 48.56692 | 9.41344 | 29835 ft | 477 kts | 45° |
| 2026-05-05 21:07 | 48.61257 | 9.47866 | 29834 ft | 476 kts | 45° |
| 2026-05-05 21:08 | 48.66061 | 9.54752 | 29840 ft | 476 kts | 45° |
| 2026-05-05 21:08 | 48.70857 | 9.61645 | 29830 ft | 475 kts | 46° |
| 2026-05-05 21:09 | 48.75612 | 9.68490 | 29834 ft | 475 kts | 46° |
| 2026-05-05 21:09 | 48.80384 | 9.75375 | 29831 ft | 475 kts | 46° |
| 2026-05-05 21:10 | 48.85141 | 9.82257 | 29827 ft | 473 kts | 47° |
| 2026-05-05 21:10 | 48.89905 | 9.89170 | 29826 ft | 473 kts | 47° |
| 2026-05-05 21:11 | 48.94646 | 9.96074 | 29835 ft | 473 kts | 47° |
| 2026-05-05 21:11 | 48.99371 | 10.02974 | 29831 ft | 472 kts | 47° |
| 2026-05-05 21:12 | 49.04104 | 10.09911 | 29831 ft | 472 kts | 47° |
| 2026-05-05 21:12 | 49.08777 | 10.16785 | 29577 ft | 465 kts | 47° |
| 2026-05-05 21:13 | 49.11096 | 10.20197 | 29218 ft | 452 kts | 47° |
| 2026-05-05 21:13 | 49.13297 | 10.23435 | 28776 ft | 439 kts | 47° |
| 2026-05-05 21:13 | 49.15484 | 10.26658 | 28284 ft | 428 kts | 47° |
| 2026-05-05 21:13 | 49.17579 | 10.29751 | 27660 ft | 423 kts | 47° |
| 2026-05-05 21:14 | 49.19698 | 10.32892 | 26635 ft | 426 kts | 47° |
| 2026-05-05 21:14 | 49.21820 | 10.36047 | 25588 ft | 430 kts | 46° |
| 2026-05-05 21:14 | 49.23941 | 10.39200 | 24999 ft | 420 kts | 46° |
| 2026-05-05 21:14 | 49.25991 | 10.42243 | 24657 ft | 406 kts | 46° |
| 2026-05-05 21:15 | 49.27953 | 10.45203 | 24348 ft | 391 kts | 49° |
| 2026-05-05 21:15 | 49.29659 | 10.48336 | 15495 ft | 377 kts | 57° |
| 2026-05-05 21:15 | 49.30981 | 10.51675 | 15279 ft | 361 kts | 59° |
| 2026-05-05 21:15 | 49.32129 | 10.54981 | 15021 ft | 346 kts | 66° |
| 2026-05-05 21:16 | 49.32888 | 10.58391 | 14859 ft | 333 kts | 77° |
| 2026-05-05 21:16 | 49.33302 | 10.61916 | 14841 ft | 335 kts | 84° |
| 2026-05-05 21:16 | 49.33507 | 10.65462 | 14695 ft | 335 kts | 89° |
| 2026-05-05 21:16 | 49.33492 | 10.69000 | 14287 ft | 333 kts | 96° |
| 2026-05-05 21:17 | 49.33246 | 10.72507 | 13840 ft | 332 kts | 100° |
| 2026-05-05 21:17 | 49.32899 | 10.75950 | 13398 ft | 331 kts | 102° |
| 2026-05-05 21:17 | 49.32516 | 10.79463 | 12947 ft | 331 kts | 102° |
| 2026-05-05 21:17 | 49.32147 | 10.82892 | 12505 ft | 330 kts | 101° |
| 2026-05-05 21:18 | 49.31787 | 10.86383 | 12050 ft | 330 kts | 101° |
| 2026-05-05 21:18 | 49.31445 | 10.89843 | 11602 ft | 330 kts | 100° |
| 2026-05-05 21:18 | 49.31110 | 10.93301 | 11153 ft | 329 kts | 100° |
| 2026-05-05 21:18 | 49.30782 | 10.96717 | 10851 ft | 323 kts | 100° |
| 2026-05-05 21:19 | 49.30465 | 11.00027 | 10829 ft | 311 kts | 100° |
| 2026-05-05 21:19 | 49.30253 | 11.03283 | 10824 ft | 312 kts | 88° |
| 2026-05-05 21:19 | 49.30856 | 11.06470 | 10824 ft | 314 kts | 57° |
| 2026-05-05 21:19 | 49.32303 | 11.08893 | 10827 ft | 310 kts | 35° |
| 2026-05-05 21:20 | 49.34097 | 11.10689 | 10825 ft | 309 kts | 26° |
| 2026-05-05 21:20 | 49.36006 | 11.12152 | 10821 ft | 306 kts | 20° |
| 2026-05-05 21:20 | 49.37976 | 11.13314 | 10819 ft | 306 kts | 16° |
| 2026-05-05 21:20 | 49.40038 | 11.14190 | 10709 ft | 304 kts | 5° |
| 2026-05-05 21:21 | 49.42072 | 11.14253 | 10246 ft | 296 kts | 348° |
| 2026-05-05 21:21 | 49.44024 | 11.13537 | 9702 ft | 291 kts | 336° |
| 2026-05-05 21:21 | 49.45869 | 11.12330 | 9157 ft | 288 kts | 330° |
| 2026-05-05 21:21 | 49.47570 | 11.10773 | 8612 ft | 284 kts | 319° |
| 2026-05-05 21:22 | 49.48954 | 11.08709 | 8067 ft | 279 kts | 306° |
| 2026-05-05 21:22 | 49.50031 | 11.06245 | 7519 ft | 276 kts | 297° |
| 2026-05-05 21:22 | 49.50865 | 11.03612 | 6972 ft | 274 kts | 289° |
| 2026-05-05 21:22 | 49.51352 | 11.00817 | 6425 ft | 271 kts | 277° |
| 2026-05-05 21:23 | 49.51443 | 10.97953 | 5926 ft | 267 kts | 268° |
| 2026-05-05 21:23 | 49.51267 | 10.95186 | 5703 ft | 254 kts | 261° |
| 2026-05-05 21:23 | 49.50815 | 10.92623 | 5522 ft | 242 kts | 250° |
| 2026-05-05 21:23 | 49.50089 | 10.90354 | 5348 ft | 231 kts | 241° |
| 2026-05-05 21:24 | 49.49221 | 10.88347 | 5177 ft | 225 kts | 236° |
| 2026-05-05 21:24 | 49.48273 | 10.86432 | 5008 ft | 220 kts | 235° |
| 2026-05-05 21:24 | 49.47381 | 10.84616 | 4865 ft | 209 kts | 236° |
| 2026-05-05 21:24 | 49.46540 | 10.82881 | 4822 ft | 195 kts | 236° |
| 2026-05-05 21:25 | 49.45757 | 10.81260 | 4823 ft | 183 kts | 236° |
| 2026-05-05 21:25 | 49.45016 | 10.79682 | 4835 ft | 181 kts | 239° |
| 2026-05-05 21:25 | 49.44340 | 10.78127 | 4824 ft | 174 kts | 239° |
| 2026-05-05 21:25 | 49.43675 | 10.76510 | 4866 ft | 180 kts | 245° |
| 2026-05-05 21:26 | 49.43284 | 10.74704 | 4876 ft | 179 kts | 262° |
| 2026-05-05 21:26 | 49.43236 | 10.72765 | 4976 ft | 183 kts | 274° |
| 2026-05-05 21:26 | 49.43378 | 10.70826 | 5129 ft | 185 kts | 277° |
| 2026-05-05 21:26 | 49.43565 | 10.68850 | 5163 ft | 187 kts | 278° |
| 2026-05-05 21:27 | 49.43756 | 10.66880 | 5117 ft | 185 kts | 278° |
| 2026-05-05 21:27 | 49.43941 | 10.64925 | 4915 ft | 188 kts | 278° |
| 2026-05-05 21:27 | 49.44126 | 10.62953 | 4664 ft | 186 kts | 278° |
| 2026-05-05 21:27 | 49.44309 | 10.60996 | 4417 ft | 182 kts | 278° |
| 2026-05-05 21:28 | 49.44484 | 10.59072 | 4335 ft | 181 kts | 278° |
| 2026-05-05 21:28 | 49.44659 | 10.57167 | 4331 ft | 184 kts | 278° |
| 2026-05-05 21:28 | 49.44845 | 10.55207 | 4329 ft | 184 kts | 278° |
| 2026-05-05 21:28 | 49.45034 | 10.53320 | 4326 ft | 186 kts | 280° |
| 2026-05-05 21:29 | 49.45490 | 10.51455 | 4322 ft | 186 kts | 303° |
| 2026-05-05 21:29 | 49.46461 | 10.50147 | 4257 ft | 185 kts | 327° |
| 2026-05-05 21:29 | 49.47635 | 10.49440 | 4012 ft | 181 kts | 343° |
| 2026-05-05 21:29 | 49.48888 | 10.49388 | 3736 ft | 181 kts | 4° |
| 2026-05-05 21:30 | 49.50115 | 10.49724 | 3464 ft | 179 kts | 6° |
| 2026-05-05 21:30 | 49.51313 | 10.50024 | 3317 ft | 170 kts | 4° |
| 2026-05-05 21:30 | 49.52490 | 10.50281 | 3326 ft | 172 kts | 4° |
| 2026-05-05 21:30 | 49.53657 | 10.50802 | 3316 ft | 178 kts | 25° |
| 2026-05-05 21:31 | 49.54523 | 10.52138 | 3327 ft | 184 kts | 57° |
| 2026-05-05 21:31 | 49.54936 | 10.54021 | 3330 ft | 186 kts | 79° |
| 2026-05-05 21:31 | 49.54942 | 10.56011 | 3324 ft | 186 kts | 99° |
| 2026-05-05 21:31 | 49.54688 | 10.57953 | 3328 ft | 185 kts | 101° |
| 2026-05-05 21:32 | 49.54487 | 10.59871 | 3319 ft | 178 kts | 97° |
| 2026-05-05 21:32 | 49.54332 | 10.61708 | 3327 ft | 175 kts | 97° |
| 2026-05-05 21:32 | 49.54160 | 10.63577 | 3325 ft | 174 kts | 98° |
| 2026-05-05 21:32 | 49.53984 | 10.65415 | 3464 ft | 175 kts | 98° |
| 2026-05-05 21:33 | 49.53807 | 10.67271 | 3480 ft | 174 kts | 98° |
| 2026-05-05 21:33 | 49.53633 | 10.69117 | 3481 ft | 173 kts | 98° |
| 2026-05-05 21:33 | 49.53477 | 10.70870 | 3481 ft | 174 kts | 96° |
| 2026-05-05 21:33 | 49.53362 | 10.72576 | 3484 ft | 174 kts | 96° |
| 2026-05-05 21:34 | 49.53212 | 10.74406 | 3485 ft | 175 kts | 98° |
| 2026-05-05 21:34 | 49.53024 | 10.76258 | 3484 ft | 175 kts | 99° |
| 2026-05-05 21:34 | 49.52822 | 10.78121 | 3486 ft | 175 kts | 99° |
| 2026-05-05 21:34 | 49.52626 | 10.79960 | 3485 ft | 174 kts | 99° |
| 2026-05-05 21:35 | 49.52504 | 10.81813 | 3484 ft | 174 kts | 90° |
| 2026-05-05 21:35 | 49.52462 | 10.83663 | 3482 ft | 175 kts | 94° |
| 2026-05-05 21:35 | 49.52317 | 10.85527 | 3483 ft | 173 kts | 98° |
| 2026-05-05 21:35 | 49.52125 | 10.87311 | 3428 ft | 169 kts | 99° |
| 2026-05-05 21:36 | 49.51935 | 10.89055 | 3362 ft | 167 kts | 99° |
| 2026-05-05 21:36 | 49.51749 | 10.90777 | 3295 ft | 163 kts | 99° |
| 2026-05-05 21:36 | 49.51548 | 10.92459 | 3095 ft | 157 kts | 103° |
| 2026-05-05 21:36 | 49.51317 | 10.94100 | 2703 ft | 167 kts | 103° |
| 2026-05-05 21:37 | 49.51102 | 10.95812 | 2435 ft | 161 kts | 101° |
| 2026-05-05 21:37 | 49.50904 | 10.97486 | 2168 ft | 156 kts | 100° |
| 2026-05-05 21:37 | 49.50740 | 10.99136 | 1903 ft | 153 kts | 100° |
| 2026-05-05 21:37 | 49.50590 | 11.00688 | 1704 ft | 146 kts | 99° |
| 2026-05-05 21:38 | 49.50441 | 11.02212 | 1472 ft | 142 kts | 101° |
| 2026-05-05 21:38 | 49.50278 | 11.03690 | 1263 ft | 140 kts | 99° |
| 2026-05-05 21:38 | 49.50136 | 11.05127 | 1118 ft | 133 kts | 99° |
| 2026-05-05 21:38 | 49.49985 | 11.06517 | 1023 ft | 129 kts | 100° |
| 2026-05-05 21:39 | 49.49872 | 11.07755 | 1028 ft | 103 kts | 97° |
| 2026-05-05 21:39 | 49.49797 | 11.08567 | 1039 ft | 56 kts | 94° |
| 2026-05-05 21:39 | 49.49748 | 11.09089 | 1048 ft | 45 kts | 101° |
| 2026-05-05 21:39 | 49.49697 | 11.09515 | 1049 ft | 24 kts | 124° |
| 2026-05-05 21:40 | 49.49577 | 11.09456 | 1048 ft | 21 kts | 232° |
| 2026-05-05 21:40 | 49.49532 | 11.09258 | 1047 ft | 19 kts | 275° |
| 2026-05-05 21:40 | 49.49554 | 11.09047 | 1045 ft | 20 kts | 279° |